Time;durP1;ratioP1;P1;durP2;ratioP2;P2;SDS_P1;SDS_P2;PMS_P1;PMS_P2;Temp;Humidity;BMP_temperature;BMP_pressure;BME280_temperature;BME280_humidity;BME280_pressure;Samples;Min_cycle;Max_cycle;Signal;HPM_P1;HPM_P2
2022/07/06 00:03:46;;;;;;;;;;;14.30;99.90;;;;;;8391578;28;19919;-76
2022/07/06 00:07:53;;;;;;;;;;;14.20;99.90;;;;;;8402875;28;20699;-76
2022/07/06 00:11:55;;;;;;;;;;;14.20;99.90;;;;;;8390758;28;20309;-76
2022/07/06 00:15:57;;;;;;;;;;;14.20;99.90;;;;;;8377988;28;19924;-76
2022/07/06 00:19:58;;;;;;;;;;;14.20;99.90;;;;;;8382793;28;19921;-76
2022/07/06 00:24:00;;;;;;;;;;;14.20;99.90;;;;;;8394042;28;19920;-76
2022/07/06 00:28:02;;;;;;;;;;;14.20;99.90;;;;;;8377069;28;19924;-77
2022/07/06 00:32:03;;;;;;;;;;;14.10;99.90;;;;;;8391898;28;19924;-76
2022/07/06 00:36:05;;;;;;;;;;;14.10;99.90;;;;;;8382382;28;19929;-76
2022/07/06 00:40:07;;;;;;;;;;;14.00;99.90;;;;;;8372861;28;19927;-76
2022/07/06 00:44:09;;;;;;;;;;;14.00;99.90;;;;;;8387652;28;20396;-76
2022/07/06 00:48:12;;;;;;;;;;;13.90;99.90;;;;;;8396691;28;20255;-76
2022/07/06 00:52:14;;;;;;;;;;;13.90;99.90;;;;;;8391025;28;19940;-76
2022/07/06 00:56:15;;;;;;;;;;;13.90;99.90;;;;;;8388727;28;19928;-76
2022/07/06 01:00:19;;;;;;;;;;;13.80;99.90;;;;;;8386729;28;19920;-76
2022/07/06 01:04:21;;;;;;;;;;;13.80;99.90;;;;;;8376802;28;19982;-76
2022/07/06 01:08:23;;;;;;;;;;;13.80;99.90;;;;;;8379247;28;20312;-76
2022/07/06 01:12:25;;;;;;;;;;;13.70;99.90;;;;;;8375913;28;19924;-76
2022/07/06 01:16:27;;;;;;;;;;;13.70;99.90;;;;;;8390812;28;19964;-76
2022/07/06 01:20:29;;;;;;;;;;;13.70;99.90;;;;;;8383199;28;20367;-76
2022/07/06 01:24:30;;;;;;;;;;;13.60;99.90;;;;;;8395110;28;19928;-76
2022/07/06 01:28:32;;;;;;;;;;;13.60;99.90;;;;;;8381369;28;20847;-76
2022/07/06 01:32:34;;;;;;;;;;;13.60;99.90;;;;;;8387752;28;20673;-76
2022/07/06 01:36:36;;;;;;;;;;;13.60;99.90;;;;;;8369105;28;19928;-76
2022/07/06 01:40:37;;;;;;;;;;;13.50;99.90;;;;;;8384455;28;19924;-76
2022/07/06 01:44:39;;;;;;;;;;;13.40;99.90;;;;;;8387350;28;19927;-76
2022/07/06 01:48:40;;;;;;;;;;;13.40;99.90;;;;;;8390703;28;20023;-76
2022/07/06 01:52:42;;;;;;;;;;;13.40;99.90;;;;;;8388175;28;19925;-76
2022/07/06 01:56:44;;;;;;;;;;;13.40;99.90;;;;;;8384879;28;20307;-76
2022/07/06 02:00:45;;;;;;;;;;;13.40;99.90;;;;;;8382233;28;20367;-76
2022/07/06 02:04:47;;;;;;;;;;;13.30;99.90;;;;;;8374677;28;19954;-76
2022/07/06 02:08:51;;;;;;;;;;;13.40;99.90;;;;;;8398249;28;20278;-76
2022/07/06 02:12:53;;;;;;;;;;;13.40;99.90;;;;;;8387284;28;19931;-76
2022/07/06 02:16:54;;;;;;;;;;;13.40;99.90;;;;;;8382125;28;20373;-76
2022/07/06 02:20:56;;;;;;;;;;;13.40;99.90;;;;;;8390369;28;19973;-76
2022/07/06 02:24:58;;;;;;;;;;;13.40;99.90;;;;;;8390062;28;20479;-75
2022/07/06 02:28:59;;;;;;;;;;;13.40;99.90;;;;;;8384461;28;19928;-76
2022/07/06 02:33:01;;;;;;;;;;;13.40;99.90;;;;;;8383390;28;19924;-75
2022/07/06 02:37:03;;;;;;;;;;;13.40;99.90;;;;;;8380483;28;19928;-76
2022/07/06 02:41:04;;;;;;;;;;;13.40;99.90;;;;;;8391292;28;19929;-76
2022/07/06 02:45:06;;;;;;;;;;;13.40;99.90;;;;;;8387687;28;20270;-76
2022/07/06 02:49:08;;;;;;;;;;;13.50;99.90;;;;;;8391396;28;19921;-76
2022/07/06 02:53:10;;;;;;;;;;;13.50;99.90;;;;;;8386112;28;19991;-76
2022/07/06 02:57:11;;;;;;;;;;;13.50;99.90;;;;;;8388571;28;19920;-76
2022/07/06 03:01:13;;;;;;;;;;;13.50;99.90;;;;;;8379275;28;19927;-75
2022/07/06 03:05:15;;;;;;;;;;;13.50;99.90;;;;;;8392500;28;19923;-76
2022/07/06 03:09:16;;;;;;;;;;;13.50;99.90;;;;;;8367968;28;20371;-75
2022/07/06 03:13:18;;;;;;;;;;;13.60;99.90;;;;;;8360850;28;20264;-75
2022/07/06 03:17:21;;;;;;;;;;;13.60;99.90;;;;;;8385976;28;19950;-76
2022/07/06 03:21:23;;;;;;;;;;;13.60;99.90;;;;;;8391517;28;19995;-75
2022/07/06 03:25:25;;;;;;;;;;;13.60;99.90;;;;;;8388094;28;19924;-76
2022/07/06 03:29:26;;;;;;;;;;;13.70;99.90;;;;;;8381244;28;19927;-76
2022/07/06 03:33:28;;;;;;;;;;;13.70;99.90;;;;;;8399198;28;19920;-76
2022/07/06 03:37:29;;;;;;;;;;;13.70;99.90;;;;;;8381643;28;20050;-76
2022/07/06 03:41:32;;;;;;;;;;;13.70;99.90;;;;;;8386021;28;19932;-75
2022/07/06 03:45:33;;;;;;;;;;;13.70;99.90;;;;;;8384365;28;20030;-76
2022/07/06 03:49:35;;;;;;;;;;;13.70;99.90;;;;;;8399623;28;20375;-75
2022/07/06 03:53:37;;;;;;;;;;;13.70;99.90;;;;;;8397911;28;20303;-76
2022/07/06 03:57:40;;;;;;;;;;;13.70;99.90;;;;;;8380199;28;19927;-76
2022/07/06 04:01:42;;;;;;;;;;;13.70;99.90;;;;;;8393056;28;19925;-76
2022/07/06 04:05:43;;;;;;;;;;;13.70;99.90;;;;;;8385367;28;20305;-76
2022/07/06 04:09:45;;;;;;;;;;;13.70;99.90;;;;;;8385558;28;19935;-76
2022/07/06 04:13:47;;;;;;;;;;;13.70;99.90;;;;;;8383788;28;19921;-76
2022/07/06 04:17:51;;;;;;;;;;;13.60;99.90;;;;;;8396546;28;19924;-76
2022/07/06 04:21:53;;;;;;;;;;;13.60;99.90;;;;;;8388256;28;20040;-76
2022/07/06 04:25:55;;;;;;;;;;;13.60;99.90;;;;;;8404268;28;20286;-76
2022/07/06 04:29:56;;;;;;;;;;;13.50;99.90;;;;;;8389181;28;19932;-76
2022/07/06 04:33:58;;;;;;;;;;;13.50;99.90;;;;;;8379558;28;19932;-76
2022/07/06 04:38:00;;;;;;;;;;;13.50;99.90;;;;;;8370906;28;19929;-76
2022/07/06 04:42:01;;;;;;;;;;;13.60;99.90;;;;;;8389144;28;19920;-76
2022/07/06 04:46:05;;;;;;;;;;;13.60;99.90;;;;;;8385899;28;20347;-77
2022/07/06 04:50:07;;;;;;;;;;;13.60;99.90;;;;;;8382211;28;19935;-76
2022/07/06 04:54:08;;;;;;;;;;;13.70;99.90;;;;;;8396474;28;20272;-76
2022/07/06 04:58:10;;;;;;;;;;;13.70;99.90;;;;;;8378849;28;19921;-75
2022/07/06 05:02:12;;;;;;;;;;;13.70;99.90;;;;;;8383100;28;19927;-76
2022/07/06 05:06:14;;;;;;;;;;;13.80;99.90;;;;;;8389345;28;19924;-76
2022/07/06 05:10:16;;;;;;;;;;;13.90;99.90;;;;;;8394903;28;19924;-76
2022/07/06 05:14:17;;;;;;;;;;;13.90;99.90;;;;;;8384586;28;19921;-76
2022/07/06 05:18:19;;;;;;;;;;;13.90;99.90;;;;;;8383287;28;19957;-76
2022/07/06 05:22:21;;;;;;;;;;;14.00;99.90;;;;;;8392417;28;19924;-76
2022/07/06 05:26:22;;;;;;;;;;;14.00;99.90;;;;;;8392371;28;19920;-76
2022/07/06 05:30:24;;;;;;;;;;;14.10;99.90;;;;;;8393956;28;19924;-76
2022/07/06 05:34:26;;;;;;;;;;;14.20;99.90;;;;;;8399164;28;19931;-76
2022/07/06 05:38:28;;;;;;;;;;;14.20;99.90;;;;;;8394117;28;20390;-76
2022/07/06 05:42:29;;;;;;;;;;;14.30;99.90;;;;;;8400028;28;19920;-76
2022/07/06 05:46:31;;;;;;;;;;;14.50;99.90;;;;;;8387618;28;19920;-76
2022/07/06 05:50:33;;;;;;;;;;;14.50;99.90;;;;;;8362269;28;20012;-76
2022/07/06 05:54:34;;;;;;;;;;;14.70;99.90;;;;;;8368003;28;19928;-76
2022/07/06 05:58:36;;;;;;;;;;;14.80;99.90;;;;;;8355632;28;19925;-76
2022/07/06 06:02:39;;;;;;;;;;;14.90;99.90;;;;;;8357063;28;20359;-76
2022/07/06 06:06:43;;;;;;;;;;;15.10;99.90;;;;;;8361066;28;20580;-76
2022/07/06 06:10:44;;;;;;;;;;;15.20;99.90;;;;;;8337787;28;20419;-76
2022/07/06 06:14:46;;;;;;;;;;;15.20;99.90;;;;;;8346730;28;19940;-76
2022/07/06 06:18:48;;;;;;;;;;;15.30;99.90;;;;;;8363355;28;19928;-76
2022/07/06 06:22:51;;;;;;;;;;;15.30;99.90;;;;;;8362956;28;19974;-76
2022/07/06 06:26:52;;;;;;;;;;;15.30;99.90;;;;;;8365829;28;19936;-75
2022/07/06 06:30:54;;;;;;;;;;;15.40;99.90;;;;;;8359797;28;20366;-77
2022/07/06 06:34:56;;;;;;;;;;;15.50;99.90;;;;;;8366162;28;20351;-78
2022/07/06 06:38:57;;;;;;;;;;;15.70;99.90;;;;;;8360343;28;19925;-76
2022/07/06 06:42:59;;;;;;;;;;;15.80;99.90;;;;;;8366145;28;20360;-77
2022/07/06 06:47:01;;;;;;;;;;;15.90;99.90;;;;;;8360057;28;20284;-76
2022/07/06 06:51:03;;;;;;;;;;;16.00;99.90;;;;;;8362698;28;19936;-76
2022/07/06 06:55:05;;;;;;;;;;;16.10;99.90;;;;;;8369573;28;23204;-76
2022/07/06 06:59:07;;;;;;;;;;;16.20;99.90;;;;;;8384468;28;19936;-76
2022/07/06 07:03:18;;;;;;;;;;;16.30;99.90;;;;;;8372357;28;19986;-77
2022/07/06 07:07:20;;;;;;;;;;;16.40;99.90;;;;;;8372194;28;20293;-77
2022/07/06 07:11:22;;;;;;;;;;;16.60;99.90;;;;;;8361945;28;20370;-77
2022/07/06 07:15:23;;;;;;;;;;;16.60;99.90;;;;;;8370965;28;20357;-77
2022/07/06 07:19:25;;;;;;;;;;;16.60;99.90;;;;;;8370213;28;20012;-78
2022/07/06 07:23:27;;;;;;;;;;;16.70;99.90;;;;;;8375152;28;19933;-77
2022/07/06 07:27:28;;;;;;;;;;;16.80;99.90;;;;;;8371858;28;20754;-76
2022/07/06 07:31:30;;;;;;;;;;;16.80;99.90;;;;;;8370295;28;19932;-76
2022/07/06 07:35:32;;;;;;;;;;;16.80;99.90;;;;;;8355002;28;19924;-76
2022/07/06 07:39:33;;;;;;;;;;;16.80;99.90;;;;;;8372059;28;19929;-76
2022/07/06 07:43:35;;;;;;;;;;;16.80;99.90;;;;;;8367378;28;19932;-77
2022/07/06 07:47:37;;;;;;;;;;;16.90;99.90;;;;;;8368040;28;19940;-76
2022/07/06 07:51:38;;;;;;;;;;;16.90;99.90;;;;;;8375119;28;20303;-76
2022/07/06 07:55:40;;;;;;;;;;;16.90;99.90;;;;;;8385574;28;19928;-76
2022/07/06 07:59:43;;;;;;;;;;;17.00;99.90;;;;;;8370822;28;19986;-76
2022/07/06 08:03:44;;;;;;;;;;;17.10;99.90;;;;;;8368997;28;20232;-76
2022/07/06 08:07:46;;;;;;;;;;;17.20;99.90;;;;;;8377118;28;19932;-77
2022/07/06 08:11:48;;;;;;;;;;;17.20;99.90;;;;;;8376009;28;19935;-76
2022/07/06 08:15:49;;;;;;;;;;;17.20;99.90;;;;;;8373981;28;19932;-75
2022/07/06 08:19:51;;;;;;;;;;;17.40;99.90;;;;;;8375172;28;20245;-76
2022/07/06 08:23:54;;;;;;;;;;;17.60;99.90;;;;;;8375310;28;19932;-76
2022/07/06 08:27:56;;;;;;;;;;;17.70;99.90;;;;;;8375661;28;20412;-76
2022/07/06 08:31:58;;;;;;;;;;;17.70;99.90;;;;;;8372559;28;19973;-77
2022/07/06 08:36:08;;;;;;;;;;;17.60;99.90;;;;;;8375265;28;19938;-76
2022/07/06 08:40:10;;;;;;;;;;;17.50;99.90;;;;;;8372800;28;19932;-76
2022/07/06 08:44:11;;;;;;;;;;;17.40;99.90;;;;;;8374619;28;19978;-77
2022/07/06 08:48:13;;;;;;;;;;;17.50;99.90;;;;;;8384933;28;19924;-76
2022/07/06 08:52:15;;;;;;;;;;;17.50;99.90;;;;;;8384081;28;20618;-74
2022/07/06 08:56:18;;;;;;;;;;;17.60;99.90;;;;;;8378472;28;19928;-74
2022/07/06 09:00:19;;;;;;;;;;;17.70;99.90;;;;;;8371309;28;19959;-75
2022/07/06 09:04:22;;;;;;;;;;;17.80;99.90;;;;;;8374813;28;19933;-74
2022/07/06 09:08:26;;;;;;;;;;;17.90;99.90;;;;;;8372486;28;19936;-74
2022/07/06 09:12:27;;;;;;;;;;;18.00;99.90;;;;;;8371067;28;19932;-75
2022/07/06 09:16:30;;;;;;;;;;;18.20;99.90;;;;;;8358177;28;20009;-75
2022/07/06 09:20:41;;;;;;;;;;;18.20;99.90;;;;;;8376339;28;20011;-73
2022/07/06 09:24:43;;;;;;;;;;;18.30;99.90;;;;;;8371661;28;19940;-76
2022/07/06 09:28:45;;;;;;;;;;;18.20;99.90;;;;;;8371340;28;20013;-75
2022/07/06 09:32:49;;;;;;;;;;;18.30;99.90;;;;;;8368629;28;19928;-75
2022/07/06 09:36:51;;;;;;;;;;;18.40;99.90;;;;;;8369861;28;19925;-75
2022/07/06 09:40:53;;;;;;;;;;;18.50;99.90;;;;;;8368065;28;19932;-75
2022/07/06 09:44:54;;;;;;;;;;;18.60;99.90;;;;;;8356204;28;19939;-75
2022/07/06 09:48:59;;;;;;;;;;;18.60;99.90;;;;;;8362952;28;19935;-74
2022/07/06 09:53:01;;;;;;;;;;;18.60;99.90;;;;;;8357923;28;19941;-75
2022/07/06 09:57:03;;;;;;;;;;;18.60;99.90;;;;;;8356825;28;20312;-75
2022/07/06 10:01:09;;;;;;;;;;;18.60;99.90;;;;;;8359555;28;20361;-74
2022/07/06 10:05:11;;;;;;;;;;;18.70;99.90;;;;;;8356842;28;19924;-75
2022/07/06 10:09:13;;;;;;;;;;;18.80;99.90;;;;;;8370322;28;19928;-75
2022/07/06 10:13:19;;;;;;;;;;;18.80;99.90;;;;;;8363159;28;19936;-73
2022/07/06 10:17:21;;;;;;;;;;;18.80;99.90;;;;;;8372153;28;19924;-76
2022/07/06 10:21:23;;;;;;;;;;;18.80;99.90;;;;;;8361101;28;19954;-77
2022/07/06 10:25:25;;;;;;;;;;;18.80;99.90;;;;;;8362186;28;19929;-76
2022/07/06 10:29:28;;;;;;;;;;;18.80;99.90;;;;;;8362523;28;19932;-76
2022/07/06 10:33:30;;;;;;;;;;;18.90;99.90;;;;;;8359632;28;20303;-76
2022/07/06 10:37:33;;;;;;;;;;;19.00;99.90;;;;;;8355118;28;19933;-75
2022/07/06 10:41:38;;;;;;;;;;;19.00;99.90;;;;;;8362533;28;19931;-75
2022/07/06 10:45:46;;;;;;;;;;;19.10;99.90;;;;;;8365152;28;19924;-77
2022/07/06 10:49:48;;;;;;;;;;;19.20;99.90;;;;;;8360869;28;19973;-77
2022/07/06 10:54:03;;;;;;;;;;;19.30;99.90;;;;;;8360200;28;20019;-75
2022/07/06 10:58:05;;;;;;;;;;;19.20;99.90;;;;;;8360481;28;19939;-76
2022/07/06 11:02:10;;;;;;;;;;;19.20;99.90;;;;;;8371741;28;20394;-76
2022/07/06 11:06:14;;;;;;;;;;;19.30;99.90;;;;;;8357361;28;19925;-77
2022/07/06 11:10:15;;;;;;;;;;;19.30;99.90;;;;;;8356273;28;19924;-76
2022/07/06 11:14:18;;;;;;;;;;;19.40;99.90;;;;;;8364010;28;19932;-76
2022/07/06 11:18:19;;;;;;;;;;;19.50;99.90;;;;;;8349832;28;19932;-75
2022/07/06 11:22:24;;;;;;;;;;;19.60;99.90;;;;;;8356686;28;19929;-76
2022/07/06 11:26:26;;;;;;;;;;;19.60;99.90;;;;;;8354863;28;19928;-76
2022/07/06 11:30:28;;;;;;;;;;;19.70;99.90;;;;;;8374038;28;19929;-76
2022/07/06 11:34:37;;;;;;;;;;;19.70;99.90;;;;;;8368592;28;19925;-76
2022/07/06 11:38:39;;;;;;;;;;;19.80;99.90;;;;;;8370897;28;19932;-77
2022/07/06 11:42:52;;;;;;;;;;;19.90;99.90;;;;;;8350366;28;19936;-76
2022/07/06 11:46:56;;;;;;;;;;;19.90;99.90;;;;;;8356942;28;19936;-76
2022/07/06 11:51:01;;;;;;;;;;;19.90;99.90;;;;;;8363358;28;19932;-74
2022/07/06 11:55:03;;;;;;;;;;;19.90;99.90;;;;;;8359697;28;20281;-76
2022/07/06 11:59:04;;;;;;;;;;;19.90;99.90;;;;;;8377676;28;21819;-74
2022/07/06 12:03:06;;;;;;;;;;;20.00;99.90;;;;;;8360725;28;19936;-74
2022/07/06 12:07:12;;;;;;;;;;;20.10;99.90;;;;;;8363425;28;19975;-75
2022/07/06 12:11:18;;;;;;;;;;;20.10;99.90;;;;;;8359503;28;19928;-75
2022/07/06 12:15:26;;;;;;;;;;;20.10;99.90;;;;;;8366018;28;19931;-77
2022/07/06 12:19:28;;;;;;;;;;;20.10;99.90;;;;;;8360399;28;19929;-76
2022/07/06 12:23:43;;;;;;;;;;;20.10;99.90;;;;;;8361689;28;19931;-76
2022/07/06 12:27:45;;;;;;;;;;;20.10;99.90;;;;;;8375568;28;19928;-76
2022/07/06 12:31:47;;;;;;;;;;;20.20;99.90;;;;;;8376142;28;19959;-76
2022/07/06 12:35:48;;;;;;;;;;;20.10;99.90;;;;;;8372876;28;19932;-76
2022/07/06 12:39:50;;;;;;;;;;;20.10;99.90;;;;;;8359388;28;19925;-77
2022/07/06 12:43:59;;;;;;;;;;;20.10;99.90;;;;;;8367402;28;19933;-76
2022/07/06 12:48:03;;;;;;;;;;;20.20;99.90;;;;;;8368406;28;19928;-78
2022/07/06 12:52:12;;;;;;;;;;;20.20;99.90;;;;;;8371672;28;19931;-76
2022/07/06 12:56:14;;;;;;;;;;;20.40;99.90;;;;;;8371901;28;20388;-76
2022/07/06 13:00:17;;;;;;;;;;;20.40;99.90;;;;;;8357889;28;19924;-77
2022/07/06 13:04:19;;;;;;;;;;;20.50;99.90;;;;;;8364213;28;19933;-75
2022/07/06 13:08:21;;;;;;;;;;;20.60;99.90;;;;;;8361339;28;19929;-77
2022/07/06 13:12:23;;;;;;;;;;;20.80;99.90;;;;;;8368694;28;19932;-75
2022/07/06 13:16:30;;;;;;;;;;;20.90;99.90;;;;;;8366921;28;20880;-76
2022/07/06 13:20:31;;;;;;;;;;;21.00;99.90;;;;;;8362205;28;20351;-75
2022/07/06 13:24:33;;;;;;;;;;;21.00;99.90;;;;;;8363395;28;19924;-76
2022/07/06 13:28:39;;;;;;;;;;;21.10;99.90;;;;;;8358335;28;19924;-75
2022/07/06 13:32:41;;;;;;;;;;;21.10;99.90;;;;;;8362212;28;20364;-75
2022/07/06 13:36:42;;;;;;;;;;;21.10;99.90;;;;;;8367571;28;20037;-76
2022/07/06 13:40:44;;;;;;;;;;;21.10;99.90;;;;;;8372995;28;19920;-76
2022/07/06 13:44:46;;;;;;;;;;;21.10;99.90;;;;;;8369578;28;19928;-75
2022/07/06 13:48:47;;;;;;;;;;;21.10;99.90;;;;;;8366846;28;19928;-76
2022/07/06 13:52:49;;;;;;;;;;;21.10;99.90;;;;;;8371501;28;20395;-75
2022/07/06 13:56:51;;;;;;;;;;;21.10;99.90;;;;;;8368772;28;19935;-76
2022/07/06 14:00:52;;;;;;;;;;;21.10;99.90;;;;;;8381527;28;19921;-76
2022/07/06 14:04:54;;;;;;;;;;;21.10;99.90;;;;;;8365557;28;19920;-76
2022/07/06 14:08:56;;;;;;;;;;;21.10;99.90;;;;;;8372319;28;19924;-76
2022/07/06 14:12:57;;;;;;;;;;;21.10;99.90;;;;;;8370690;28;19924;-75
2022/07/06 14:16:59;;;;;;;;;;;21.10;99.90;;;;;;8381869;28;19974;-76
2022/07/06 14:21:01;;;;;;;;;;;21.00;99.90;;;;;;8383313;28;19924;-76
2022/07/06 14:25:05;;;;;;;;;;;20.90;99.90;;;;;;8371267;28;19921;-75
2022/07/06 14:29:06;;;;;;;;;;;20.90;99.90;;;;;;8373132;28;19920;-77
2022/07/06 14:33:08;;;;;;;;;;;20.80;99.90;;;;;;8370267;28;19931;-76
2022/07/06 14:37:10;;;;;;;;;;;20.80;99.90;;;;;;8369472;28;19920;-76
2022/07/06 14:41:15;;;;;;;;;;;20.80;99.90;;;;;;8386506;28;19968;-76
2022/07/06 14:45:17;;;;;;;;;;;20.70;99.90;;;;;;8360263;28;19928;-75
2022/07/06 14:49:19;;;;;;;;;;;20.70;99.90;;;;;;8371088;28;19929;-76
2022/07/06 14:53:21;;;;;;;;;;;20.70;99.90;;;;;;8378398;28;19924;-76
2022/07/06 14:57:23;;;;;;;;;;;20.60;99.90;;;;;;8369436;28;20375;-77
2022/07/06 15:01:25;;;;;;;;;;;20.70;99.90;;;;;;8369522;28;19924;-76
2022/07/06 15:05:27;;;;;;;;;;;20.70;99.90;;;;;;8366058;28;19962;-77
2022/07/06 15:09:30;;;;;;;;;;;20.80;99.90;;;;;;8362363;28;20361;-75
2022/07/06 15:13:32;;;;;;;;;;;20.80;99.90;;;;;;8372783;28;19931;-77
2022/07/06 15:17:33;;;;;;;;;;;20.80;99.90;;;;;;8361457;28;19932;-76
2022/07/06 15:21:35;;;;;;;;;;;20.80;99.90;;;;;;8363933;28;19928;-76
2022/07/06 15:25:37;;;;;;;;;;;20.80;99.90;;;;;;8368805;28;20276;-77
2022/07/06 15:29:38;;;;;;;;;;;20.70;99.90;;;;;;8367372;28;19929;-77
2022/07/06 15:33:40;;;;;;;;;;;20.70;99.90;;;;;;8366142;28;19920;-76
2022/07/06 15:37:42;;;;;;;;;;;20.70;99.90;;;;;;8369878;28;19955;-76
2022/07/06 15:41:43;;;;;;;;;;;20.70;99.90;;;;;;8360527;28;19928;-78
2022/07/06 15:45:45;;;;;;;;;;;20.70;99.90;;;;;;8364150;28;20331;-76
2022/07/06 15:49:48;;;;;;;;;;;20.60;99.90;;;;;;8360924;28;19924;-76
2022/07/06 15:53:54;;;;;;;;;;;20.50;99.90;;;;;;8364615;28;19929;-75
2022/07/06 15:57:56;;;;;;;;;;;20.40;99.90;;;;;;8362616;28;19969;-76
2022/07/06 16:01:57;;;;;;;;;;;20.40;99.90;;;;;;8367724;28;19924;-76
2022/07/06 16:06:03;;;;;;;;;;;20.40;99.90;;;;;;8383555;28;19956;-77
2022/07/06 16:10:10;;;;;;;;;;;20.30;99.90;;;;;;8364765;28;19930;-77
2022/07/06 16:14:12;;;;;;;;;;;20.30;99.90;;;;;;8362093;28;20236;-77
2022/07/06 16:18:13;;;;;;;;;;;20.30;99.90;;;;;;8346806;28;20394;-78
2022/07/06 16:22:15;;;;;;;;;;;20.30;99.90;;;;;;8386318;28;19936;-77
2022/07/06 16:26:17;;;;;;;;;;;20.40;99.90;;;;;;8366451;28;20295;-77
2022/07/06 16:30:19;;;;;;;;;;;20.40;99.90;;;;;;8362096;28;20265;-77
2022/07/06 16:34:22;;;;;;;;;;;20.40;99.90;;;;;;8373095;28;19928;-76
2022/07/06 16:38:24;;;;;;;;;;;20.40;99.90;;;;;;8352961;28;20743;-76
2022/07/06 16:42:26;;;;;;;;;;;20.30;99.90;;;;;;8345698;28;19932;-76
2022/07/06 16:46:28;;;;;;;;;;;20.30;99.90;;;;;;8377264;28;19920;-76
2022/07/06 16:50:30;;;;;;;;;;;20.30;99.90;;;;;;8366403;28;20656;-77
2022/07/06 16:54:32;;;;;;;;;;;20.30;99.90;;;;;;8367002;28;19921;-76
2022/07/06 16:58:34;;;;;;;;;;;20.30;99.90;;;;;;8353275;28;19920;-77
2022/07/06 17:02:36;;;;;;;;;;;20.30;99.90;;;;;;8365215;28;19936;-76
2022/07/06 17:06:37;;;;;;;;;;;20.30;99.90;;;;;;8366091;28;19925;-75
2022/07/06 17:10:39;;;;;;;;;;;20.30;99.90;;;;;;8377308;28;19939;-77
2022/07/06 17:14:41;;;;;;;;;;;20.30;99.90;;;;;;8367225;28;19924;-76
2022/07/06 17:18:43;;;;;;;;;;;20.30;99.90;;;;;;8371462;28;19927;-77
2022/07/06 17:22:44;;;;;;;;;;;20.20;99.90;;;;;;8372068;28;19928;-76
2022/07/06 17:26:46;;;;;;;;;;;20.20;99.90;;;;;;8363507;28;19920;-76
2022/07/06 17:30:47;;;;;;;;;;;20.20;99.90;;;;;;8371224;28;19920;-76
2022/07/06 17:34:49;;;;;;;;;;;20.20;99.90;;;;;;8364036;28;19931;-77
2022/07/06 17:38:51;;;;;;;;;;;20.10;99.90;;;;;;8348021;28;19976;-77
2022/07/06 17:42:52;;;;;;;;;;;20.10;99.90;;;;;;8378766;28;19935;-77
2022/07/06 17:46:54;;;;;;;;;;;20.00;99.90;;;;;;8362586;28;20135;-77
2022/07/06 17:50:56;;;;;;;;;;;20.00;99.90;;;;;;8363591;28;19929;-77
2022/07/06 17:54:58;;;;;;;;;;;19.90;99.90;;;;;;8362666;28;19920;-77
2022/07/06 17:58:59;;;;;;;;;;;19.90;99.90;;;;;;8375410;28;20252;-77
2022/07/06 18:03:01;;;;;;;;;;;19.80;99.90;;;;;;8365318;28;19924;-78
2022/07/06 18:07:03;;;;;;;;;;;19.80;99.90;;;;;;8362581;28;20232;-77
2022/07/06 18:11:05;;;;;;;;;;;19.80;99.90;;;;;;8372640;28;19929;-78
2022/07/06 18:15:07;;;;;;;;;;;19.80;99.90;;;;;;8376774;28;20371;-78
2022/07/06 18:19:09;;;;;;;;;;;19.80;99.90;;;;;;8360453;28;20291;-77
2022/07/06 18:23:10;;;;;;;;;;;19.80;99.90;;;;;;8368229;28;19924;-77
2022/07/06 18:27:12;;;;;;;;;;;19.90;99.90;;;;;;8360345;28;19921;-78
2022/07/06 18:31:14;;;;;;;;;;;19.90;99.90;;;;;;8367453;28;19920;-77
2022/07/06 18:35:16;;;;;;;;;;;19.90;99.90;;;;;;8376116;28;19926;-78
2022/07/06 18:39:18;;;;;;;;;;;19.80;99.90;;;;;;8372666;28;19931;-77
2022/07/06 18:43:19;;;;;;;;;;;19.80;99.90;;;;;;8367075;28;19928;-77
2022/07/06 18:47:24;;;;;;;;;;;19.70;99.90;;;;;;8371057;28;19928;-78
2022/07/06 18:51:25;;;;;;;;;;;19.70;99.90;;;;;;8362043;28;20018;-77
2022/07/06 18:55:27;;;;;;;;;;;19.60;99.90;;;;;;8367704;28;19973;-78
2022/07/06 18:59:29;;;;;;;;;;;19.60;99.90;;;;;;8360238;28;20251;-77
2022/07/06 19:03:30;;;;;;;;;;;19.60;99.90;;;;;;8367844;28;19932;-77
2022/07/06 19:07:32;;;;;;;;;;;19.60;99.90;;;;;;8358411;28;19932;-78
2022/07/06 19:11:34;;;;;;;;;;;19.60;99.90;;;;;;8361835;28;19928;-77
2022/07/06 19:15:35;;;;;;;;;;;19.50;99.90;;;;;;8373757;28;19931;-77
2022/07/06 19:19:37;;;;;;;;;;;19.50;99.90;;;;;;8359635;28;19958;-78
2022/07/06 19:23:39;;;;;;;;;;;19.50;99.90;;;;;;8360295;28;20421;-78
2022/07/06 19:27:40;;;;;;;;;;;19.50;99.90;;;;;;8362067;28;19968;-78
2022/07/06 19:31:42;;;;;;;;;;;19.50;99.90;;;;;;8359302;28;19925;-78
2022/07/06 19:35:44;;;;;;;;;;;19.50;99.90;;;;;;8357239;28;19939;-78
2022/07/06 19:39:45;;;;;;;;;;;19.50;99.90;;;;;;8371139;28;19928;-78
2022/07/06 19:43:47;;;;;;;;;;;19.50;99.90;;;;;;8354580;28;19929;-77
2022/07/06 19:47:49;;;;;;;;;;;19.50;99.90;;;;;;8357516;28;19931;-77
2022/07/06 19:51:50;;;;;;;;;;;19.50;99.90;;;;;;8366961;28;19969;-77
2022/07/06 19:55:52;;;;;;;;;;;19.50;99.90;;;;;;8356794;28;19920;-78
2022/07/06 19:59:55;;;;;;;;;;;19.40;99.90;;;;;;8361307;28;19920;-78
2022/07/06 20:03:57;;;;;;;;;;;19.40;99.90;;;;;;8357146;28;19928;-78
2022/07/06 20:07:59;;;;;;;;;;;19.40;99.90;;;;;;8368872;28;19974;-78
2022/07/06 20:12:01;;;;;;;;;;;19.40;99.90;;;;;;8371154;28;19950;-77
2022/07/06 20:16:03;;;;;;;;;;;19.40;99.90;;;;;;8355891;28;19932;-78
2022/07/06 20:20:05;;;;;;;;;;;19.40;99.90;;;;;;8374187;28;19920;-78
2022/07/06 20:24:07;;;;;;;;;;;19.40;99.90;;;;;;8361213;28;19943;-77
2022/07/06 20:28:08;;;;;;;;;;;19.30;99.90;;;;;;8355008;28;19928;-77
2022/07/06 20:32:10;;;;;;;;;;;19.30;99.90;;;;;;8357244;28;19935;-78
2022/07/06 20:36:12;;;;;;;;;;;19.30;99.90;;;;;;8354496;28;20294;-77
2022/07/06 20:40:14;;;;;;;;;;;19.30;99.90;;;;;;8364726;28;19921;-78
2022/07/06 20:44:15;;;;;;;;;;;19.30;99.90;;;;;;8348230;28;19960;-78
2022/07/06 20:48:17;;;;;;;;;;;19.30;99.90;;;;;;8366169;28;20296;-77
2022/07/06 20:52:19;;;;;;;;;;;19.30;99.90;;;;;;8353959;28;20360;-78
2022/07/06 20:56:20;;;;;;;;;;;19.20;99.90;;;;;;8351734;28;20375;-77
2022/07/06 21:00:22;;;;;;;;;;;19.20;99.90;;;;;;8367848;28;19925;-77
2022/07/06 21:04:24;;;;;;;;;;;19.20;99.90;;;;;;8398774;28;20007;-77
2022/07/06 21:08:25;;;;;;;;;;;19.20;99.90;;;;;;8376590;28;20315;-79
2022/07/06 21:12:27;;;;;;;;;;;19.10;99.90;;;;;;8420951;28;19920;-77
2022/07/06 21:16:29;;;;;;;;;;;19.10;99.90;;;;;;8350303;28;20848;-77
2022/07/06 21:20:31;;;;;;;;;;;19.10;99.90;;;;;;8345748;28;19928;-77
2022/07/06 21:24:33;;;;;;;;;;;19.10;99.90;;;;;;8373154;28;19924;-77
2022/07/06 21:28:34;;;;;;;;;;;19.00;99.90;;;;;;8372751;28;19928;-77
2022/07/06 21:32:36;;;;;;;;;;;19.00;99.90;;;;;;8347599;28;19954;-78
2022/07/06 21:36:39;;;;;;;;;;;18.90;99.90;;;;;;8360773;28;19935;-77
2022/07/06 21:40:41;;;;;;;;;;;18.90;99.90;;;;;;8362361;28;20015;-78
2022/07/06 21:44:44;;;;;;;;;;;18.90;99.90;;;;;;8359953;28;19929;-78
2022/07/06 21:48:46;;;;;;;;;;;18.80;99.90;;;;;;8370571;28;19924;-77
2022/07/06 21:52:48;;;;;;;;;;;18.80;99.90;;;;;;8372825;28;19931;-77
2022/07/06 21:56:49;;;;;;;;;;;18.80;99.90;;;;;;8373315;28;19940;-77
2022/07/06 22:00:51;;;;;;;;;;;18.80;99.90;;;;;;8381129;28;19932;-78
2022/07/06 22:04:55;;;;;;;;;;;18.80;99.90;;;;;;8381182;28;20273;-78
2022/07/06 22:08:56;;;;;;;;;;;18.70;99.90;;;;;;8377474;28;19932;-78
2022/07/06 22:12:59;;;;;;;;;;;18.70;99.90;;;;;;8396046;28;19943;-78
2022/07/06 22:17:01;;;;;;;;;;;18.70;99.90;;;;;;8379917;28;19928;-78
2022/07/06 22:21:03;;;;;;;;;;;18.70;99.90;;;;;;8361017;28;19933;-78
2022/07/06 22:25:05;;;;;;;;;;;18.60;99.90;;;;;;8366562;28;19989;-78
2022/07/06 22:29:07;;;;;;;;;;;18.60;99.90;;;;;;8382806;28;19943;-79
2022/07/06 22:33:08;;;;;;;;;;;18.60;99.90;;;;;;8393067;28;19954;-77
2022/07/06 22:37:10;;;;;;;;;;;18.60;99.90;;;;;;8372293;28;19939;-77
2022/07/06 22:41:14;;;;;;;;;;;18.60;99.90;;;;;;8382562;28;21946;-77
2022/07/06 22:45:16;;;;;;;;;;;18.60;99.90;;;;;;8361635;28;19939;-77
2022/07/06 22:49:18;;;;;;;;;;;18.50;99.90;;;;;;8368473;28;20377;-79
2022/07/06 22:53:20;;;;;;;;;;;18.50;99.90;;;;;;8362546;28;20046;-78
2022/07/06 22:57:21;;;;;;;;;;;18.50;99.90;;;;;;8390092;28;20235;-77
2022/07/06 23:01:23;;;;;;;;;;;18.50;99.90;;;;;;8375239;28;20268;-78
2022/07/06 23:05:25;;;;;;;;;;;18.50;99.90;;;;;;8379788;28;19951;-78
2022/07/06 23:09:26;;;;;;;;;;;18.50;99.90;;;;;;8375390;28;20394;-77
2022/07/06 23:13:28;;;;;;;;;;;18.40;99.90;;;;;;8375319;28;19924;-78
2022/07/06 23:17:30;;;;;;;;;;;18.40;99.90;;;;;;8387405;28;19966;-78
2022/07/06 23:21:32;;;;;;;;;;;18.40;99.90;;;;;;8357231;28;19935;-78
2022/07/06 23:25:33;;;;;;;;;;;18.40;99.90;;;;;;8369454;28;19933;-79
2022/07/06 23:29:35;;;;;;;;;;;18.40;99.90;;;;;;8393532;28;19944;-78